sensor_id;sensor_type;location;lat;lon;timestamp;temperature;humidity
67901;DHT22;54700;51.796;10.956;2023-07-22T00:02:56;14.30;93.90
67901;DHT22;54700;51.796;10.956;2023-07-22T00:06:02;14.30;93.90
67901;DHT22;54700;51.796;10.956;2023-07-22T00:08:35;14.30;93.90
67901;DHT22;54700;51.796;10.956;2023-07-22T00:11:30;14.20;93.70
67901;DHT22;54700;51.796;10.956;2023-07-22T00:22:06;14.10;94.00
67901;DHT22;54700;51.796;10.956;2023-07-22T00:29:11;14.10;93.90
67901;DHT22;54700;51.796;10.956;2023-07-22T00:32:21;14.10;94.40
67901;DHT22;54700;51.796;10.956;2023-07-22T00:38:37;14.00;94.10
67901;DHT22;54700;51.796;10.956;2023-07-22T00:41:48;13.90;94.00
67901;DHT22;54700;51.796;10.956;2023-07-22T00:44:48;13.90;94.10
67901;DHT22;54700;51.796;10.956;2023-07-22T00:47:53;13.90;94.00
67901;DHT22;54700;51.796;10.956;2023-07-22T00:50:23;13.80;94.20
67901;DHT22;54700;51.796;10.956;2023-07-22T00:52:56;13.80;94.40
67901;DHT22;54700;51.796;10.956;2023-07-22T00:55:23;13.70;94.60
67901;DHT22;54700;51.796;10.956;2023-07-22T00:57:52;13.70;94.80
67901;DHT22;54700;51.796;10.956;2023-07-22T01:00:19;13.60;94.80
67901;DHT22;54700;51.796;10.956;2023-07-22T01:02:46;13.60;94.60
67901;DHT22;54700;51.796;10.956;2023-07-22T01:05:14;13.50;94.70
67901;DHT22;54700;51.796;10.956;2023-07-22T01:07:41;13.50;95.00
67901;DHT22;54700;51.796;10.956;2023-07-22T01:10:12;13.40;94.70
67901;DHT22;54700;51.796;10.956;2023-07-22T01:12:42;13.40;94.10
67901;DHT22;54700;51.796;10.956;2023-07-22T01:15:11;13.40;93.60
67901;DHT22;54700;51.796;10.956;2023-07-22T01:17:38;13.40;92.80
67901;DHT22;54700;51.796;10.956;2023-07-22T01:20:06;13.50;91.90
67901;DHT22;54700;51.796;10.956;2023-07-22T01:22:35;13.50;91.30
67901;DHT22;54700;51.796;10.956;2023-07-22T01:25:05;13.60;90.50
67901;DHT22;54700;51.796;10.956;2023-07-22T01:27:33;13.60;90.30
67901;DHT22;54700;51.796;10.956;2023-07-22T01:30:00;13.60;90.40
67901;DHT22;54700;51.796;10.956;2023-07-22T01:32:28;13.60;90.60
67901;DHT22;54700;51.796;10.956;2023-07-22T01:34:55;13.60;90.40
67901;DHT22;54700;51.796;10.956;2023-07-22T01:37:22;13.70;90.30
67901;DHT22;54700;51.796;10.956;2023-07-22T01:40:07;13.60;90.30
67901;DHT22;54700;51.796;10.956;2023-07-22T01:45:57;13.60;90.80
67901;DHT22;54700;51.796;10.956;2023-07-22T01:48:24;13.50;91.30
67901;DHT22;54700;51.796;10.956;2023-07-22T01:53:51;13.50;91.00
67901;DHT22;54700;51.796;10.956;2023-07-22T01:59:22;13.40;91.00
67901;DHT22;54700;51.796;10.956;2023-07-22T02:01:49;13.40;91.10
67901;DHT22;54700;51.796;10.956;2023-07-22T02:04:16;13.30;91.10
67901;DHT22;54700;51.796;10.956;2023-07-22T02:06:43;13.30;91.40
67901;DHT22;54700;51.796;10.956;2023-07-22T02:09:11;13.30;91.20
67901;DHT22;54700;51.796;10.956;2023-07-22T02:11:39;13.30;91.20
67901;DHT22;54700;51.796;10.956;2023-07-22T02:14:10;13.30;91.20
67901;DHT22;54700;51.796;10.956;2023-07-22T02:17:01;13.30;91.30
67901;DHT22;54700;51.796;10.956;2023-07-22T02:19:29;13.30;91.30
67901;DHT22;54700;51.796;10.956;2023-07-22T02:21:56;13.20;91.30
67901;DHT22;54700;51.796;10.956;2023-07-22T02:24:23;13.20;90.90
67901;DHT22;54700;51.796;10.956;2023-07-22T02:26:52;13.20;91.00
67901;DHT22;54700;51.796;10.956;2023-07-22T02:29:22;13.20;91.20
67901;DHT22;54700;51.796;10.956;2023-07-22T02:31:51;13.20;91.40
67901;DHT22;54700;51.796;10.956;2023-07-22T02:34:18;13.20;91.90
67901;DHT22;54700;51.796;10.956;2023-07-22T02:36:47;13.20;91.50
67901;DHT22;54700;51.796;10.956;2023-07-22T02:39:17;13.20;91.60
67901;DHT22;54700;51.796;10.956;2023-07-22T02:41:44;13.10;91.60
67901;DHT22;54700;51.796;10.956;2023-07-22T02:44:11;13.00;91.90
67901;DHT22;54700;51.796;10.956;2023-07-22T02:46:40;13.00;92.10
67901;DHT22;54700;51.796;10.956;2023-07-22T02:49:07;12.80;92.50
67901;DHT22;54700;51.796;10.956;2023-07-22T02:51:35;12.70;92.90
67901;DHT22;54700;51.796;10.956;2023-07-22T02:54:08;12.60;92.40
67901;DHT22;54700;51.796;10.956;2023-07-22T02:56:40;12.60;92.70
67901;DHT22;54700;51.796;10.956;2023-07-22T02:59:07;12.60;92.90
67901;DHT22;54700;51.796;10.956;2023-07-22T03:01:35;12.60;92.80
67901;DHT22;54700;51.796;10.956;2023-07-22T03:04:04;12.60;93.00
67901;DHT22;54700;51.796;10.956;2023-07-22T03:06:33;12.60;93.00
67901;DHT22;54700;51.796;10.956;2023-07-22T03:09:00;12.60;93.00
67901;DHT22;54700;51.796;10.956;2023-07-22T03:11:30;12.60;93.00
67901;DHT22;54700;51.796;10.956;2023-07-22T03:13:57;12.60;93.10
67901;DHT22;54700;51.796;10.956;2023-07-22T03:16:25;12.60;93.40
67901;DHT22;54700;51.796;10.956;2023-07-22T03:18:57;12.60;93.40
67901;DHT22;54700;51.796;10.956;2023-07-22T03:21:25;12.60;93.90
67901;DHT22;54700;51.796;10.956;2023-07-22T03:24:04;12.50;94.00
67901;DHT22;54700;51.796;10.956;2023-07-22T03:26:55;12.50;94.00
67901;DHT22;54700;51.796;10.956;2023-07-22T03:29:42;12.50;94.40
67901;DHT22;54700;51.796;10.956;2023-07-22T03:35:41;12.50;94.50
67901;DHT22;54700;51.796;10.956;2023-07-22T03:38:09;12.50;94.60
67901;DHT22;54700;51.796;10.956;2023-07-22T03:40:42;12.50;95.00
67901;DHT22;54700;51.796;10.956;2023-07-22T03:43:25;12.50;94.60
67901;DHT22;54700;51.796;10.956;2023-07-22T03:46:09;12.50;94.80
67901;DHT22;54700;51.796;10.956;2023-07-22T03:48:56;12.50;94.70
67901;DHT22;54700;51.796;10.956;2023-07-22T03:51:40;12.50;94.80
67901;DHT22;54700;51.796;10.956;2023-07-22T03:55:06;12.60;94.90
67901;DHT22;54700;51.796;10.956;2023-07-22T03:58:12;12.60;94.90
67901;DHT22;54700;51.796;10.956;2023-07-22T04:01:12;12.60;94.80
67901;DHT22;54700;51.796;10.956;2023-07-22T04:04:06;12.70;94.90
67901;DHT22;54700;51.796;10.956;2023-07-22T04:06:36;12.70;95.00
67901;DHT22;54700;51.796;10.956;2023-07-22T04:09:38;12.80;95.00
67901;DHT22;54700;51.796;10.956;2023-07-22T04:15:07;12.90;94.70
67901;DHT22;54700;51.796;10.956;2023-07-22T04:18:11;13.00;94.50
67901;DHT22;54700;51.796;10.956;2023-07-22T04:20:43;13.30;93.70
67901;DHT22;54700;51.796;10.956;2023-07-22T04:26:22;13.60;92.80
67901;DHT22;54700;51.796;10.956;2023-07-22T04:29:31;13.60;92.80
67901;DHT22;54700;51.796;10.956;2023-07-22T04:32:06;13.70;92.60
67901;DHT22;54700;51.796;10.956;2023-07-22T04:34:33;13.80;92.30
67901;DHT22;54700;51.796;10.956;2023-07-22T04:37:06;13.80;92.10
67901;DHT22;54700;51.796;10.956;2023-07-22T04:39:46;13.80;92.60
67901;DHT22;54700;51.796;10.956;2023-07-22T04:42:17;13.90;92.00
67901;DHT22;54700;51.796;10.956;2023-07-22T04:44:45;14.00;91.80
67901;DHT22;54700;51.796;10.956;2023-07-22T04:47:31;14.00;91.80
67901;DHT22;54700;51.796;10.956;2023-07-22T04:50:52;14.20;91.40
67901;DHT22;54700;51.796;10.956;2023-07-22T04:53:37;14.90;89.90
67901;DHT22;54700;51.796;10.956;2023-07-22T04:56:04;15.20;86.80
67901;DHT22;54700;51.796;10.956;2023-07-22T04:58:31;15.20;85.50
67901;DHT22;54700;51.796;10.956;2023-07-22T05:01:02;15.10;86.80
67901;DHT22;54700;51.796;10.956;2023-07-22T05:03:29;14.80;88.00
67901;DHT22;54700;51.796;10.956;2023-07-22T05:05:56;14.50;89.80
67901;DHT22;54700;51.796;10.956;2023-07-22T05:08:24;14.40;90.30
67901;DHT22;54700;51.796;10.956;2023-07-22T05:10:51;14.30;90.80
67901;DHT22;54700;51.796;10.956;2023-07-22T05:13:20;14.30;91.20
67901;DHT22;54700;51.796;10.956;2023-07-22T05:15:47;14.20;91.30
67901;DHT22;54700;51.796;10.956;2023-07-22T05:18:23;14.20;91.30
67901;DHT22;54700;51.796;10.956;2023-07-22T05:20:50;14.20;91.60
67901;DHT22;54700;51.796;10.956;2023-07-22T05:23:17;14.20;91.50
67901;DHT22;54700;51.796;10.956;2023-07-22T05:25:50;14.10;91.60
67901;DHT22;54700;51.796;10.956;2023-07-22T05:28:19;14.10;91.70
67901;DHT22;54700;51.796;10.956;2023-07-22T05:30:46;14.20;91.80
67901;DHT22;54700;51.796;10.956;2023-07-22T05:33:13;14.20;91.60
67901;DHT22;54700;51.796;10.956;2023-07-22T05:35:43;14.20;91.50
67901;DHT22;54700;51.796;10.956;2023-07-22T05:38:10;14.20;91.70
67901;DHT22;54700;51.796;10.956;2023-07-22T05:40:37;14.20;91.40
67901;DHT22;54700;51.796;10.956;2023-07-22T05:43:04;14.30;91.50
67901;DHT22;54700;51.796;10.956;2023-07-22T05:45:49;14.40;91.40
67901;DHT22;54700;51.796;10.956;2023-07-22T05:48:23;14.50;91.50
67901;DHT22;54700;51.796;10.956;2023-07-22T05:51:08;14.50;91.30
67901;DHT22;54700;51.796;10.956;2023-07-22T05:54:07;14.50;91.20
67901;DHT22;54700;51.796;10.956;2023-07-22T05:56:49;14.50;91.30
67901;DHT22;54700;51.796;10.956;2023-07-22T05:59:29;14.50;91.30
67901;DHT22;54700;51.796;10.956;2023-07-22T06:01:56;14.60;91.10
67901;DHT22;54700;51.796;10.956;2023-07-22T06:04:23;14.70;90.80
67901;DHT22;54700;51.796;10.956;2023-07-22T06:06:52;14.90;90.10
67901;DHT22;54700;51.796;10.956;2023-07-22T06:09:19;15.10;88.00
67901;DHT22;54700;51.796;10.956;2023-07-22T06:11:46;15.30;87.80
67901;DHT22;54700;51.796;10.956;2023-07-22T06:14:13;15.50;86.30
67901;DHT22;54700;51.796;10.956;2023-07-22T06:16:40;15.80;84.10
67901;DHT22;54700;51.796;10.956;2023-07-22T06:19:10;15.90;79.40
67901;DHT22;54700;51.796;10.956;2023-07-22T06:21:37;16.10;77.40
67901;DHT22;54700;51.796;10.956;2023-07-22T06:24:15;16.20;76.00
67901;DHT22;54700;51.796;10.956;2023-07-22T06:26:46;16.20;75.60
67901;DHT22;54700;51.796;10.956;2023-07-22T06:29:17;16.30;75.80
67901;DHT22;54700;51.796;10.956;2023-07-22T06:31:44;16.40;75.20
67901;DHT22;54700;51.796;10.956;2023-07-22T06:34:11;16.50;76.20
67901;DHT22;54700;51.796;10.956;2023-07-22T06:36:44;16.50;74.10
67901;DHT22;54700;51.796;10.956;2023-07-22T06:39:28;16.60;75.00
67901;DHT22;54700;51.796;10.956;2023-07-22T06:42:00;16.90;71.90
67901;DHT22;54700;51.796;10.956;2023-07-22T06:44:28;17.00;69.50
67901;DHT22;54700;51.796;10.956;2023-07-22T06:46:55;17.10;71.50
67901;DHT22;54700;51.796;10.956;2023-07-22T06:49:23;17.30;72.00
67901;DHT22;54700;51.796;10.956;2023-07-22T06:51:53;17.40;68.70
67901;DHT22;54700;51.796;10.956;2023-07-22T06:54:28;17.40;69.00
67901;DHT22;54700;51.796;10.956;2023-07-22T06:56:56;17.30;70.00
67901;DHT22;54700;51.796;10.956;2023-07-22T06:59:26;17.30;71.10
67901;DHT22;54700;51.796;10.956;2023-07-22T07:02:01;17.20;71.30
67901;DHT22;54700;51.796;10.956;2023-07-22T07:04:39;17.20;72.40
67901;DHT22;54700;51.796;10.956;2023-07-22T07:07:20;17.30;74.00
67901;DHT22;54700;51.796;10.956;2023-07-22T07:10:03;17.20;74.30
67901;DHT22;54700;51.796;10.956;2023-07-22T07:12:35;17.20;73.90
67901;DHT22;54700;51.796;10.956;2023-07-22T07:15:13;17.30;71.20
67901;DHT22;54700;51.796;10.956;2023-07-22T07:17:47;17.30;71.00
67901;DHT22;54700;51.796;10.956;2023-07-22T07:20:38;17.20;73.10
67901;DHT22;54700;51.796;10.956;2023-07-22T07:23:11;17.20;73.70
67901;DHT22;54700;51.796;10.956;2023-07-22T07:25:54;17.20;72.50
67901;DHT22;54700;51.796;10.956;2023-07-22T07:28:25;17.30;71.10
67901;DHT22;54700;51.796;10.956;2023-07-22T07:30:53;17.40;70.10
67901;DHT22;54700;51.796;10.956;2023-07-22T07:33:27;17.50;71.60
67901;DHT22;54700;51.796;10.956;2023-07-22T07:36:05;17.60;71.50
67901;DHT22;54700;51.796;10.956;2023-07-22T07:38:51;17.70;70.80
67901;DHT22;54700;51.796;10.956;2023-07-22T07:41:49;17.70;71.90
67901;DHT22;54700;51.796;10.956;2023-07-22T07:47:34;17.70;70.20
67901;DHT22;54700;51.796;10.956;2023-07-22T07:50:10;17.70;69.10
67901;DHT22;54700;51.796;10.956;2023-07-22T07:53:19;17.70;68.60
67901;DHT22;54700;51.796;10.956;2023-07-22T07:56:05;17.70;70.60
67901;DHT22;54700;51.796;10.956;2023-07-22T07:58:55;17.70;69.80
67901;DHT22;54700;51.796;10.956;2023-07-22T08:01:23;17.80;70.10
67901;DHT22;54700;51.796;10.956;2023-07-22T08:03:54;18.00;68.40
67901;DHT22;54700;51.796;10.956;2023-07-22T08:06:22;18.10;69.80
67901;DHT22;54700;51.796;10.956;2023-07-22T08:08:56;18.30;68.70
67901;DHT22;54700;51.796;10.956;2023-07-22T08:11:24;18.30;64.00
67901;DHT22;54700;51.796;10.956;2023-07-22T08:13:53;18.20;66.60
67901;DHT22;54700;51.796;10.956;2023-07-22T08:16:23;18.00;67.00
67901;DHT22;54700;51.796;10.956;2023-07-22T08:18:53;18.00;66.00
67901;DHT22;54700;51.796;10.956;2023-07-22T08:21:23;17.90;65.50
67901;DHT22;54700;51.796;10.956;2023-07-22T08:23:56;18.00;65.50
67901;DHT22;54700;51.796;10.956;2023-07-22T08:26:26;18.20;66.30
67901;DHT22;54700;51.796;10.956;2023-07-22T08:28:57;18.30;64.70
67901;DHT22;54700;51.796;10.956;2023-07-22T08:31:24;18.40;64.30
67901;DHT22;54700;51.796;10.956;2023-07-22T08:33:52;18.40;62.40
67901;DHT22;54700;51.796;10.956;2023-07-22T08:36:24;18.40;63.10
67901;DHT22;54700;51.796;10.956;2023-07-22T08:39:01;18.40;63.60
67901;DHT22;54700;51.796;10.956;2023-07-22T08:41:30;18.40;63.20
67901;DHT22;54700;51.796;10.956;2023-07-22T08:44:05;18.30;62.60
67901;DHT22;54700;51.796;10.956;2023-07-22T08:46:53;18.20;62.50
67901;DHT22;54700;51.796;10.956;2023-07-22T08:49:26;18.30;62.90
67901;DHT22;54700;51.796;10.956;2023-07-22T08:52:09;18.40;64.40
67901;DHT22;54700;51.796;10.956;2023-07-22T08:54:46;18.50;60.50
67901;DHT22;54700;51.796;10.956;2023-07-22T08:57:31;18.50;60.10
67901;DHT22;54700;51.796;10.956;2023-07-22T09:00:07;18.70;60.60
67901;DHT22;54700;51.796;10.956;2023-07-22T09:02:39;18.80;61.90
67901;DHT22;54700;51.796;10.956;2023-07-22T09:05:31;18.80;59.50
67901;DHT22;54700;51.796;10.956;2023-07-22T09:11:04;18.90;61.20
67901;DHT22;54700;51.796;10.956;2023-07-22T09:13:59;19.00;60.20
67901;DHT22;54700;51.796;10.956;2023-07-22T09:16:31;19.00;59.20
67901;DHT22;54700;51.796;10.956;2023-07-22T09:19:08;19.10;58.30
67901;DHT22;54700;51.796;10.956;2023-07-22T09:21:37;19.00;60.50
67901;DHT22;54700;51.796;10.956;2023-07-22T09:24:22;19.00;58.40
67901;DHT22;54700;51.796;10.956;2023-07-22T09:26:53;18.90;58.40
67901;DHT22;54700;51.796;10.956;2023-07-22T09:29:32;18.80;58.20
67901;DHT22;54700;51.796;10.956;2023-07-22T09:32:12;18.80;60.40
67901;DHT22;54700;51.796;10.956;2023-07-22T09:34:56;18.80;58.50
67901;DHT22;54700;51.796;10.956;2023-07-22T09:37:35;18.90;58.60
67901;DHT22;54700;51.796;10.956;2023-07-22T09:40:18;18.90;60.80
67901;DHT22;54700;51.796;10.956;2023-07-22T09:42:56;19.00;60.60
67901;DHT22;54700;51.796;10.956;2023-07-22T09:45:46;19.20;59.40
67901;DHT22;54700;51.796;10.956;2023-07-22T09:48:54;19.40;58.90
67901;DHT22;54700;51.796;10.956;2023-07-22T09:51:32;19.70;55.20
67901;DHT22;54700;51.796;10.956;2023-07-22T09:54:02;19.70;55.30
67901;DHT22;54700;51.796;10.956;2023-07-22T09:57:06;19.60;54.10
67901;DHT22;54700;51.796;10.956;2023-07-22T09:59:52;19.50;54.90
67901;DHT22;54700;51.796;10.956;2023-07-22T10:02:55;19.40;57.00
67901;DHT22;54700;51.796;10.956;2023-07-22T10:05:38;19.40;56.90
67901;DHT22;54700;51.796;10.956;2023-07-22T10:08:18;19.40;55.70
67901;DHT22;54700;51.796;10.956;2023-07-22T10:10:59;19.40;56.10
67901;DHT22;54700;51.796;10.956;2023-07-22T10:13:44;19.30;54.90
67901;DHT22;54700;51.796;10.956;2023-07-22T10:16:22;19.40;55.40
67901;DHT22;54700;51.796;10.956;2023-07-22T10:19:00;19.60;53.90
67901;DHT22;54700;51.796;10.956;2023-07-22T10:21:55;19.70;55.00
67901;DHT22;54700;51.796;10.956;2023-07-22T10:24:29;20.10;52.50
67901;DHT22;54700;51.796;10.956;2023-07-22T10:30:20;20.20;51.80
67901;DHT22;54700;51.796;10.956;2023-07-22T10:33:00;20.20;53.20
67901;DHT22;54700;51.796;10.956;2023-07-22T10:35:42;20.30;52.80
67901;DHT22;54700;51.796;10.956;2023-07-22T10:38:43;20.20;51.80
67901;DHT22;54700;51.796;10.956;2023-07-22T10:41:38;20.20;52.70
67901;DHT22;54700;51.796;10.956;2023-07-22T10:44:06;20.10;52.00
67901;DHT22;54700;51.796;10.956;2023-07-22T10:46:42;20.10;51.10
67901;DHT22;54700;51.796;10.956;2023-07-22T10:49:29;20.20;51.70
67901;DHT22;54700;51.796;10.956;2023-07-22T10:52:10;20.40;51.40
67901;DHT22;54700;51.796;10.956;2023-07-22T10:54:43;20.60;51.10
67901;DHT22;54700;51.796;10.956;2023-07-22T10:57:24;20.70;50.70
67901;DHT22;54700;51.796;10.956;2023-07-22T10:59:52;20.90;50.60
67901;DHT22;54700;51.796;10.956;2023-07-22T11:02:25;20.90;49.10
67901;DHT22;54700;51.796;10.956;2023-07-22T11:04:55;20.80;49.90
67901;DHT22;54700;51.796;10.956;2023-07-22T11:07:30;20.60;48.80
67901;DHT22;54700;51.796;10.956;2023-07-22T11:09:59;20.60;48.90
67901;DHT22;54700;51.796;10.956;2023-07-22T11:12:38;20.50;48.10
67901;DHT22;54700;51.796;10.956;2023-07-22T11:15:06;20.50;47.90
67901;DHT22;54700;51.796;10.956;2023-07-22T11:17:34;20.60;49.00
67901;DHT22;54700;51.796;10.956;2023-07-22T11:20:02;20.60;48.20
67901;DHT22;54700;51.796;10.956;2023-07-22T11:22:30;20.60;49.00
67901;DHT22;54700;51.796;10.956;2023-07-22T11:24:59;20.60;49.90
67901;DHT22;54700;51.796;10.956;2023-07-22T11:27:28;20.40;48.60
67901;DHT22;54700;51.796;10.956;2023-07-22T11:29:58;20.30;49.80
67901;DHT22;54700;51.796;10.956;2023-07-22T11:32:25;20.30;50.70
67901;DHT22;54700;51.796;10.956;2023-07-22T11:34:58;20.30;50.90
67901;DHT22;54700;51.796;10.956;2023-07-22T11:37:27;20.10;50.90
67901;DHT22;54700;51.796;10.956;2023-07-22T11:40:00;19.90;51.30
67901;DHT22;54700;51.796;10.956;2023-07-22T11:42:27;19.70;51.90
67901;DHT22;54700;51.796;10.956;2023-07-22T11:44:57;19.50;51.60
67901;DHT22;54700;51.796;10.956;2023-07-22T11:47:28;19.30;52.50
67901;DHT22;54700;51.796;10.956;2023-07-22T11:50:02;19.10;52.80
67901;DHT22;54700;51.796;10.956;2023-07-22T11:52:36;19.00;54.10
67901;DHT22;54700;51.796;10.956;2023-07-22T11:55:13;18.90;54.30
67901;DHT22;54700;51.796;10.956;2023-07-22T11:58:05;18.80;53.90
67901;DHT22;54700;51.796;10.956;2023-07-22T12:00:38;18.80;54.70
67901;DHT22;54700;51.796;10.956;2023-07-22T12:03:17;18.80;54.80
67901;DHT22;54700;51.796;10.956;2023-07-22T12:05:53;18.80;55.40
67901;DHT22;54700;51.796;10.956;2023-07-22T12:09:09;19.00;55.80
67901;DHT22;54700;51.796;10.956;2023-07-22T12:11:49;19.40;55.60
67901;DHT22;54700;51.796;10.956;2023-07-22T12:14:36;19.80;53.70
67901;DHT22;54700;51.796;10.956;2023-07-22T12:17:07;20.10;52.80
67901;DHT22;54700;51.796;10.956;2023-07-22T12:19:50;20.30;53.10
67901;DHT22;54700;51.796;10.956;2023-07-22T12:22:18;20.40;52.30
67901;DHT22;54700;51.796;10.956;2023-07-22T12:24:46;20.60;52.60
67901;DHT22;54700;51.796;10.956;2023-07-22T12:27:15;20.70;50.60
67901;DHT22;54700;51.796;10.956;2023-07-22T12:29:42;20.80;51.80
67901;DHT22;54700;51.796;10.956;2023-07-22T12:32:09;20.90;50.50
67901;DHT22;54700;51.796;10.956;2023-07-22T12:34:36;21.00;50.60
67901;DHT22;54700;51.796;10.956;2023-07-22T12:37:03;21.10;50.10
67901;DHT22;54700;51.796;10.956;2023-07-22T12:39:31;21.20;50.00
67901;DHT22;54700;51.796;10.956;2023-07-22T12:41:58;21.40;50.50
67901;DHT22;54700;51.796;10.956;2023-07-22T12:44:27;21.40;49.90
67901;DHT22;54700;51.796;10.956;2023-07-22T12:46:57;21.50;48.70
67901;DHT22;54700;51.796;10.956;2023-07-22T12:49:24;21.50;47.50
67901;DHT22;54700;51.796;10.956;2023-07-22T12:51:54;21.40;47.60
67901;DHT22;54700;51.796;10.956;2023-07-22T12:54:29;21.30;46.20
67901;DHT22;54700;51.796;10.956;2023-07-22T12:59:40;21.40;46.80
67901;DHT22;54700;51.796;10.956;2023-07-22T13:02:07;21.30;46.00
67901;DHT22;54700;51.796;10.956;2023-07-22T13:04:34;21.40;46.70
67901;DHT22;54700;51.796;10.956;2023-07-22T13:07:04;21.50;46.30
67901;DHT22;54700;51.796;10.956;2023-07-22T13:09:31;21.80;46.10
67901;DHT22;54700;51.796;10.956;2023-07-22T13:11:58;22.00;45.90
67901;DHT22;54700;51.796;10.956;2023-07-22T13:14:25;22.10;46.20
67901;DHT22;54700;51.796;10.956;2023-07-22T13:16:54;22.00;44.40
67901;DHT22;54700;51.796;10.956;2023-07-22T13:19:21;22.00;44.70
67901;DHT22;54700;51.796;10.956;2023-07-22T13:21:48;22.20;45.60
67901;DHT22;54700;51.796;10.956;2023-07-22T13:24:15;22.30;45.00
67901;DHT22;54700;51.796;10.956;2023-07-22T13:26:42;22.40;44.10
67901;DHT22;54700;51.796;10.956;2023-07-22T13:29:09;22.40;43.80
67901;DHT22;54700;51.796;10.956;2023-07-22T13:31:36;22.40;44.20
67901;DHT22;54700;51.796;10.956;2023-07-22T13:34:05;22.50;45.10
67901;DHT22;54700;51.796;10.956;2023-07-22T13:36:32;22.60;44.60
67901;DHT22;54700;51.796;10.956;2023-07-22T13:38:59;22.50;44.10
67901;DHT22;54700;51.796;10.956;2023-07-22T13:41:29;22.60;44.40
67901;DHT22;54700;51.796;10.956;2023-07-22T13:43:56;22.70;44.60
67901;DHT22;54700;51.796;10.956;2023-07-22T13:46:33;22.80;45.40
67901;DHT22;54700;51.796;10.956;2023-07-22T13:49:19;22.90;44.20
67901;DHT22;54700;51.796;10.956;2023-07-22T13:54:55;22.90;44.50
67901;DHT22;54700;51.796;10.956;2023-07-22T13:57:34;22.70;42.50
67901;DHT22;54700;51.796;10.956;2023-07-22T14:00:15;22.50;42.40
67901;DHT22;54700;51.796;10.956;2023-07-22T14:02:52;22.30;43.40
67901;DHT22;54700;51.796;10.956;2023-07-22T14:05:21;22.40;43.40
67901;DHT22;54700;51.796;10.956;2023-07-22T14:07:53;22.40;43.10
67901;DHT22;54700;51.796;10.956;2023-07-22T14:10:50;22.60;43.40
67901;DHT22;54700;51.796;10.956;2023-07-22T14:13:18;22.70;42.80
67901;DHT22;54700;51.796;10.956;2023-07-22T14:15:54;22.60;43.60
67901;DHT22;54700;51.796;10.956;2023-07-22T14:18:29;22.60;43.50
67901;DHT22;54700;51.796;10.956;2023-07-22T14:20:58;22.60;43.70
67901;DHT22;54700;51.796;10.956;2023-07-22T14:23:25;22.60;44.40
67901;DHT22;54700;51.796;10.956;2023-07-22T14:25:52;22.50;44.00
67901;DHT22;54700;51.796;10.956;2023-07-22T14:28:19;22.40;44.20
67901;DHT22;54700;51.796;10.956;2023-07-22T14:30:46;22.30;44.10
67901;DHT22;54700;51.796;10.956;2023-07-22T14:33:13;22.40;44.80
67901;DHT22;54700;51.796;10.956;2023-07-22T14:35:41;22.40;44.60
67901;DHT22;54700;51.796;10.956;2023-07-22T14:38:10;22.30;44.00
67901;DHT22;54700;51.796;10.956;2023-07-22T14:40:38;22.30;44.90
67901;DHT22;54700;51.796;10.956;2023-07-22T14:43:08;22.30;45.30
67901;DHT22;54700;51.796;10.956;2023-07-22T14:45:35;22.30;45.30
67901;DHT22;54700;51.796;10.956;2023-07-22T14:48:02;22.30;45.20
67901;DHT22;54700;51.796;10.956;2023-07-22T14:50:30;22.50;45.10
67901;DHT22;54700;51.796;10.956;2023-07-22T14:52:57;22.60;44.40
67901;DHT22;54700;51.796;10.956;2023-07-22T14:55:28;22.60;44.60
67901;DHT22;54700;51.796;10.956;2023-07-22T14:57:57;22.60;44.00
67901;DHT22;54700;51.796;10.956;2023-07-22T15:00:24;22.60;44.60
67901;DHT22;54700;51.796;10.956;2023-07-22T15:02:51;22.70;44.90
67901;DHT22;54700;51.796;10.956;2023-07-22T15:05:18;22.70;44.60
67901;DHT22;54700;51.796;10.956;2023-07-22T15:07:45;22.60;44.20
67901;DHT22;54700;51.796;10.956;2023-07-22T15:10:12;22.60;44.10
67901;DHT22;54700;51.796;10.956;2023-07-22T15:12:41;22.70;43.60
67901;DHT22;54700;51.796;10.956;2023-07-22T15:15:11;22.80;42.90
67901;DHT22;54700;51.796;10.956;2023-07-22T15:17:42;22.70;42.80
67901;DHT22;54700;51.796;10.956;2023-07-22T15:20:13;22.60;43.30
67901;DHT22;54700;51.796;10.956;2023-07-22T15:22:43;22.50;43.30
67901;DHT22;54700;51.796;10.956;2023-07-22T15:25:10;22.50;43.50
67901;DHT22;54700;51.796;10.956;2023-07-22T15:27:38;22.60;43.80
67901;DHT22;54700;51.796;10.956;2023-07-22T15:30:07;22.50;41.50
67901;DHT22;54700;51.796;10.956;2023-07-22T15:32:37;22.60;42.50
67901;DHT22;54700;51.796;10.956;2023-07-22T15:35:05;22.60;43.00
67901;DHT22;54700;51.796;10.956;2023-07-22T15:37:35;22.60;41.70
67901;DHT22;54700;51.796;10.956;2023-07-22T15:40:02;22.70;42.60
67901;DHT22;54700;51.796;10.956;2023-07-22T15:42:31;22.60;42.20
67901;DHT22;54700;51.796;10.956;2023-07-22T15:44:58;22.60;43.20
67901;DHT22;54700;51.796;10.956;2023-07-22T15:47:26;22.50;42.60
67901;DHT22;54700;51.796;10.956;2023-07-22T15:49:53;22.50;42.20
67901;DHT22;54700;51.796;10.956;2023-07-22T15:52:26;22.60;42.40
67901;DHT22;54700;51.796;10.956;2023-07-22T15:54:56;22.60;42.50
67901;DHT22;54700;51.796;10.956;2023-07-22T15:57:25;22.70;42.60
67901;DHT22;54700;51.796;10.956;2023-07-22T15:59:55;22.70;42.40
67901;DHT22;54700;51.796;10.956;2023-07-22T16:02:25;22.70;43.10
67901;DHT22;54700;51.796;10.956;2023-07-22T16:04:58;22.60;42.50
67901;DHT22;54700;51.796;10.956;2023-07-22T16:07:32;22.50;43.10
67901;DHT22;54700;51.796;10.956;2023-07-22T16:10:05;22.30;42.70
67901;DHT22;54700;51.796;10.956;2023-07-22T16:12:33;22.30;43.00
67901;DHT22;54700;51.796;10.956;2023-07-22T16:15:01;22.30;43.30
67901;DHT22;54700;51.796;10.956;2023-07-22T16:17:32;22.20;43.70
67901;DHT22;54700;51.796;10.956;2023-07-22T16:19:59;22.10;43.40
67901;DHT22;54700;51.796;10.956;2023-07-22T16:22:26;22.00;43.30
67901;DHT22;54700;51.796;10.956;2023-07-22T16:24:53;21.90;42.70
67901;DHT22;54700;51.796;10.956;2023-07-22T16:27:20;21.90;43.50
67901;DHT22;54700;51.796;10.956;2023-07-22T16:29:47;21.80;43.40
67901;DHT22;54700;51.796;10.956;2023-07-22T16:32:15;21.90;43.20
67901;DHT22;54700;51.796;10.956;2023-07-22T16:34:45;21.80;43.20
67901;DHT22;54700;51.796;10.956;2023-07-22T16:37:12;21.80;43.50
67901;DHT22;54700;51.796;10.956;2023-07-22T16:39:51;21.80;43.80
67901;DHT22;54700;51.796;10.956;2023-07-22T16:42:19;21.80;44.40
67901;DHT22;54700;51.796;10.956;2023-07-22T16:44:47;21.70;44.10
67901;DHT22;54700;51.796;10.956;2023-07-22T16:47:18;21.70;43.80
67901;DHT22;54700;51.796;10.956;2023-07-22T16:49:52;21.80;44.70